SILO ALERT LOG
| Silo ID | Alert Type | Alert Message | Silo Type | Points | Depth (mm) | Strength | Temperature (°C) | Humidity (%) | Height (mm) | Volume (㎥) | Weight (t) | Flag | Time |
|---|---|---|---|---|---|---|---|---|---|---|---|---|---|
| WJWJR05 | Humidity | 습도센서 측정값이 80% 초과 | 평 | 56 | 7720 | 2566 | 26.2 | 82.5 | 0 | 0 | 0 | 0 | 2026-07-22 03:25:48.000 |
| WJWJR01 | Humidity | 습도센서 측정값이 80% 초과 | 평 | 83 | 7710 | 1061 | 24.8 | 96.1 | -70 | -7.917 | 0 | 0 | 2026-07-22 02:25:58.000 |
| WJWJR05 | Humidity | 습도센서 측정값이 80% 초과 | 평 | 57 | 7750 | 2518 | 26.3 | 82.5 | -30 | -3.393 | 0 | 0 | 2026-07-22 02:25:48.000 |
| WJWJR01 | Humidity | 습도센서 측정값이 80% 초과 | 평 | 76 | 7680 | 1048 | 24.9 | 96.1 | -40 | -4.524 | 0 | 0 | 2026-07-22 01:26:01.000 |
| WJWJR05 | Humidity | 습도센서 측정값이 80% 초과 | 평 | 56 | 7710 | 2522 | 26.4 | 82.4 | 9 | 1.131 | 0.715 | 0 | 2026-07-22 01:25:48.000 |
| WJWJR01 | Humidity | 습도센서 측정값이 80% 초과 | 평 | 84 | 7680 | 1050 | 24.9 | 95.9 | -40 | -4.524 | 0 | 0 | 2026-07-22 00:26:02.000 |
| WJWJR05 | Humidity | 습도센서 측정값이 80% 초과 | 평 | 55 | 7980 | 2528 | 26.4 | 82.5 | -260 | -29.405 | 0 | 0 | 2026-07-22 00:25:54.000 |
| WJWJR01 | Humidity | 습도센서 측정값이 80% 초과 | 평 | 76 | 7660 | 1061 | 25 | 96 | -20 | -2.262 | 0 | 0 | 2026-07-21 23:26:03.000 |
| WJWJR05 | Humidity | 습도센서 측정값이 80% 초과 | 평 | 59 | 7680 | 2520 | 26.6 | 82.4 | 40 | 4.524 | 2.86 | 0 | 2026-07-21 23:25:48.000 |
| WJWJR01 | Humidity | 습도센서 측정값이 80% 초과 | 평 | 75 | 7690 | 1044 | 25.2 | 95.8 | -50 | -5.655 | 0 | 0 | 2026-07-21 22:25:57.000 |
| WJWJR05 | Humidity | 습도센서 측정값이 80% 초과 | 평 | 53 | 7670 | 2480 | 26.7 | 82.4 | 49 | 5.655 | 3.575 | 0 | 2026-07-21 22:25:45.000 |
| WJWJR01 | Humidity | 습도센서 측정값이 80% 초과 | 평 | 76 | 7670 | 1054 | 25.3 | 95.7 | -30 | -3.393 | 0 | 0 | 2026-07-21 21:26:01.000 |
| WJWJR05 | Humidity | 습도센서 측정값이 80% 초과 | 평 | 55 | 7800 | 2523 | 26.8 | 82.4 | -80 | -9.048 | 0 | 0 | 2026-07-21 21:25:45.000 |
| WJWJR01 | Humidity | 습도센서 측정값이 80% 초과 | 평 | 76 | 7680 | 1068 | 25.4 | 95.4 | -40 | -4.524 | 0 | 0 | 2026-07-21 20:26:01.000 |
| WJWJR05 | Humidity | 습도센서 측정값이 80% 초과 | 평 | 71 | 10410 | 2500 | 26.9 | 82.1 | -2690 | -304.232 | 0 | 0 | 2026-07-21 20:25:51.000 |
| WJWJR01 | Humidity | 습도센서 측정값이 80% 초과 | 평 | 76 | 7660 | 1050 | 25.7 | 95.2 | -20 | -2.262 | 0 | 0 | 2026-07-21 19:26:02.000 |
| WJWJR05 | Humidity | 습도센서 측정값이 80% 초과 | 평 | 52 | 7790 | 2483 | 27.1 | 82.1 | -70 | -7.917 | 0 | 0 | 2026-07-21 19:25:47.000 |
| WJWJR01 | Humidity | 습도센서 측정값이 80% 초과 | 평 | 82 | 7710 | 1019 | 25.7 | 95.4 | -70 | -7.917 | 0 | 0 | 2026-07-21 18:25:58.000 |
| WJWJR05 | Humidity | 습도센서 측정값이 80% 초과 | 평 | 43 | 8050 | 2520 | 27.1 | 82.4 | -330 | -37.322 | 0 | 0 | 2026-07-21 18:25:48.000 |
| WJWJR01 | Humidity | 습도센서 측정값이 80% 초과 | 평 | 76 | 7690 | 1033 | 25.6 | 95.4 | -50 | -5.655 | 0 | 0 | 2026-07-21 17:26:01.000 |
[첫 페이지] [23] [24] [25] [26] 27 [28] [29] [30] [31] [마지막 페이지]